DAUL/LOO METAR and TAF weather

Enter ICAO airport designator
Station Type Date Time Source
DAUL METAR 2019/04/25 21:00 UTC NOAA

DAUL 252100Z 06012KT CAVOK 23/05 Q1017


Station Type Date Time Source
DAUL Decoded METAR 2019/04/25 21:00 UTC NOAA

Laghouat, Algeria (DAUL) 33-46N 002-56E 765M
Apr 25, 2019 - 05:00 PM EDT / 2019.04.25 2100 UTC
Wind: from the ENE (060 degrees) at 14 MPH (12 KT):0
Visibility: greater than 7 mile(s):0
Temperature: 73 F (23 C)
Dew Point: 41 F (5 C)
Relative Humidity: 31%
Pressure (altimeter): 30.03 in. Hg (1017 hPa)
ob: DAUL 252100Z 06012KT CAVOK 23/05 Q1017
cycle: 21

Station Type Date Time Source
DAUL TAF 2017/11/09 18:03 UTC NOAA

TAF DAUL 091700Z 0918/1009 02012KT 9999 SCT030 SCT100 PROB40
TEMPO 0918/0924 35020G30KT 4000 -TSRA FEW030CB

Example: see airport list